Time;durP1;ratioP1;P1;durP2;ratioP2;P2;SDS_P1;SDS_P2;PMS_P1;PMS_P2;Temp;Humidity;BMP_temperature;BMP_pressure;BME280_temperature;BME280_humidity;BME280_pressure;Samples;Min_cycle;Max_cycle;Signal;HPM_P1;HPM_P2
2023/07/10 00:01:12;;;;;;;13.63;9.73;;;;;;;;;;5074965;28;20520;-67
2023/07/10 00:03:39;;;;;;;10.70;9.60;;;;;;;;;;5077016;28;20463;-67
2023/07/10 00:06:06;;;;;;;11.97;10.30;;;;;;;;;;5075264;28;20595;-67
2023/07/10 00:08:32;;;;;;;9.87;8.87;;;;;;;;;;5067675;28;20548;-67
2023/07/10 00:10:59;;;;;;;10.20;8.83;;;;;;;;;;5075664;28;20539;-67
2023/07/10 00:13:28;;;;;;;10.47;9.47;;;;;;;;;;5079404;28;20833;-67
2023/07/10 00:15:54;;;;;;;9.97;8.63;;;;;;;;;;5077810;28;20791;-67
2023/07/10 00:18:22;;;;;;;12.00;10.73;;;;;;;;;;5078452;28;20445;-67
2023/07/10 00:20:49;;;;;;;11.77;10.63;;;;;;;;;;5077745;28;20892;-67
2023/07/10 00:23:15;;;;;;;11.13;10.13;;;;;;;;;;5079887;28;20551;-67
2023/07/10 00:25:42;;;;;;;12.63;11.33;;;;;;;;;;5072099;28;20477;-67
2023/07/10 00:28:13;;;;;;;13.27;12.17;;;;;;;;;;5079189;28;20447;-67
2023/07/10 00:30:41;;;;;;;13.50;12.20;;;;;;;;;;5069023;28;20445;-67
2023/07/10 00:33:10;;;;;;;12.60;11.47;;;;;;;;;;5071043;28;20455;-67
2023/07/10 00:35:36;;;;;;;13.20;12.00;;;;;;;;;;5068844;28;20536;-67
2023/07/10 00:38:11;;;;;;;14.30;12.93;;;;;;;;;;5067568;28;20483;-67
2023/07/10 00:40:38;;;;;;;17.27;13.30;;;;;;;;;;5070372;28;20547;-67
2023/07/10 00:43:06;;;;;;;17.60;15.70;;;;;;;;;;5072032;28;20457;-67
2023/07/10 00:45:32;;;;;;;16.40;14.83;;;;;;;;;;5076840;28;20460;-68
2023/07/10 00:48:07;;;;;;;17.43;15.70;;;;;;;;;;5075231;28;20478;-68
2023/07/10 00:50:36;;;;;;;18.87;17.07;;;;;;;;;;5072124;28;20493;-67
2023/07/10 00:53:03;;;;;;;21.20;19.10;;;;;;;;;;5072567;28;20534;-67
2023/07/10 00:55:30;;;;;;;21.63;19.53;;;;;;;;;;5077162;28;20910;-67
2023/07/10 00:58:05;;;;;;;22.20;19.87;;;;;;;;;;5079178;28;20506;-68
2023/07/10 01:00:34;;;;;;;20.57;18.60;;;;;;;;;;5077288;28;20460;-68
2023/07/10 01:03:00;;;;;;;20.63;18.67;;;;;;;;;;5071312;28;20475;-68
2023/07/10 01:05:28;;;;;;;19.53;17.60;;;;;;;;;;5072184;28;20563;-67
2023/07/10 01:07:56;;;;;;;20.87;18.87;;;;;;;;;;5056819;28;20437;-68
2023/07/10 01:10:23;;;;;;;20.27;18.13;;;;;;;;;;5050867;28;20488;-68
2023/07/10 01:12:50;;;;;;;18.97;16.80;;;;;;;;;;5053210;28;20750;-68
2023/07/10 01:15:16;;;;;;;18.37;16.20;;;;;;;;;;5049354;28;20536;-68
2023/07/10 01:17:46;;;;;;;18.83;16.83;;;;;;;;;;5057474;28;20563;-68
2023/07/10 01:20:29;;;;;;;20.40;18.50;;;;;;;;;;5058644;28;20476;-68
2023/07/10 01:22:57;;;;;;;20.97;19.00;;;;;;;;;;5056043;28;20481;-68
2023/07/10 01:25:23;;;;;;;20.53;18.40;;;;;;;;;;5050966;28;20548;-68
2023/07/10 01:27:50;;;;;;;22.83;20.63;;;;;;;;;;5057671;28;20954;-69
2023/07/10 01:30:21;;;;;;;22.70;20.40;;;;;;;;;;5056455;28;20476;-68
2023/07/10 01:32:48;;;;;;;26.33;22.37;;;;;;;;;;5057751;28;20721;-68
2023/07/10 01:35:17;;;;;;;29.93;25.47;;;;;;;;;;5056311;28;20507;-67
2023/07/10 01:37:44;;;;;;;28.60;25.60;;;;;;;;;;5058618;28;20452;-68
2023/07/10 01:40:14;;;;;;;31.40;27.00;;;;;;;;;;5057865;28;20449;-68
2023/07/10 01:42:40;;;;;;;29.60;26.50;;;;;;;;;;5053196;28;20516;-68
2023/07/10 01:45:11;;;;;;;30.70;26.63;;;;;;;;;;5058168;28;20507;-68
2023/07/10 01:47:37;;;;;;;30.13;26.63;;;;;;;;;;5054635;28;20488;-67
2023/07/10 01:50:04;;;;;;;39.83;28.63;;;;;;;;;;5056968;28;20520;-68
2023/07/10 01:52:33;;;;;;;31.53;28.23;;;;;;;;;;5055944;28;20461;-68
2023/07/10 01:54:59;;;;;;;31.30;27.97;;;;;;;;;;5056988;28;20465;-68
2023/07/10 01:57:27;;;;;;;34.57;29.50;;;;;;;;;;5056161;28;20516;-68
2023/07/10 01:59:54;;;;;;;36.10;30.57;;;;;;;;;;5058469;28;20457;-68
2023/07/10 02:02:20;;;;;;;33.07;29.57;;;;;;;;;;5046285;28;21013;-68
2023/07/10 02:04:47;;;;;;;32.33;28.67;;;;;;;;;;5047660;28;20476;-69
2023/07/10 02:07:13;;;;;;;30.27;27.17;;;;;;;;;;5056491;28;20523;-69
2023/07/10 02:09:39;;;;;;;28.43;25.47;;;;;;;;;;5058119;28;20965;-69
2023/07/10 02:12:06;;;;;;;33.53;28.93;;;;;;;;;;5056530;28;20465;-70
2023/07/10 02:14:34;;;;;;;35.07;27.77;;;;;;;;;;5058111;28;20536;-69
2023/07/10 02:17:01;;;;;;;30.10;27.03;;;;;;;;;;5052526;28;20457;-69
2023/07/10 02:19:27;;;;;;;30.83;27.33;;;;;;;;;;5056209;28;20544;-69
2023/07/10 02:21:53;;;;;;;33.20;27.83;;;;;;;;;;5056445;28;20501;-68
2023/07/10 02:24:20;;;;;;;34.50;28.40;;;;;;;;;;5056626;28;21016;-68
2023/07/10 02:26:46;;;;;;;31.37;28.00;;;;;;;;;;5056670;28;20465;-68
2023/07/10 02:29:12;;;;;;;35.23;28.73;;;;;;;;;;5054284;28;20536;-67
2023/07/10 02:31:40;;;;;;;36.10;28.80;;;;;;;;;;5056023;28;20476;-67
2023/07/10 02:34:07;;;;;;;32.57;29.17;;;;;;;;;;5061093;28;20531;-66
2023/07/10 02:36:33;;;;;;;34.80;27.80;;;;;;;;;;5058242;28;20468;-67
2023/07/10 02:39:00;;;;;;;31.90;27.70;;;;;;;;;;5061265;28;20476;-67
2023/07/10 02:41:26;;;;;;;33.70;27.63;;;;;;;;;;5060297;28;20967;-67
2023/07/10 02:43:53;;;;;;;33.90;29.97;;;;;;;;;;5060222;28;20495;-67
2023/07/10 02:46:19;;;;;;;34.37;30.40;;;;;;;;;;5060745;28;20495;-67
2023/07/10 02:48:47;;;;;;;34.63;30.57;;;;;;;;;;5055602;28;20901;-66
2023/07/10 02:51:13;;;;;;;36.40;31.53;;;;;;;;;;5049113;28;20912;-67
2023/07/10 02:53:40;;;;;;;39.43;31.57;;;;;;;;;;5055430;28;20490;-67
2023/07/10 02:56:06;;;;;;;39.37;31.90;;;;;;;;;;5058255;28;20887;-66
2023/07/10 02:58:33;;;;;;;35.53;31.80;;;;;;;;;;5061475;28;20453;-66
2023/07/10 03:01:00;;;;;;;36.07;30.80;;;;;;;;;;5060482;28;20492;-67
2023/07/10 03:03:27;;;;;;;40.70;32.80;;;;;;;;;;5060911;28;20472;-66
2023/07/10 03:05:55;;;;;;;38.37;34.33;;;;;;;;;;5061582;28;20535;-66
2023/07/10 03:08:21;;;;;;;42.10;35.33;;;;;;;;;;5068402;28;20523;-67
2023/07/10 03:10:48;;;;;;;39.93;33.97;;;;;;;;;;5064646;28;20949;-66
2023/07/10 03:13:14;;;;;;;35.33;31.53;;;;;;;;;;5062938;28;20477;-66
2023/07/10 03:15:40;;;;;;;37.30;32.73;;;;;;;;;;5060022;28;20975;-66
2023/07/10 03:18:07;;;;;;;40.80;33.87;;;;;;;;;;5062947;28;20483;-67
2023/07/10 03:20:33;;;;;;;39.87;34.30;;;;;;;;;;5065752;28;20499;-67
2023/07/10 03:23:01;;;;;;;37.10;33.00;;;;;;;;;;5048538;28;20527;-67
2023/07/10 03:25:27;;;;;;;36.63;32.07;;;;;;;;;;5061373;28;20584;-68
2023/07/10 03:27:53;;;;;;;39.80;32.53;;;;;;;;;;5063377;28;20495;-68
2023/07/10 03:30:20;;;;;;;38.87;32.53;;;;;;;;;;5059199;28;20492;-67
2023/07/10 03:32:46;;;;;;;42.00;32.77;;;;;;;;;;5061416;28;20864;-68
2023/07/10 03:35:13;;;;;;;44.73;34.53;;;;;;;;;;5054685;28;20476;-66
2023/07/10 03:37:39;;;;;;;50.23;35.40;;;;;;;;;;5061427;28;20516;-66
2023/07/10 03:40:08;;;;;;;44.50;33.10;;;;;;;;;;5067760;28;20540;-67
2023/07/10 03:42:34;;;;;;;47.47;35.77;;;;;;;;;;5065575;28;20511;-66
2023/07/10 03:45:00;;;;;;;47.53;35.90;;;;;;;;;;5066549;28;20516;-67
2023/07/10 03:47:27;;;;;;;50.90;38.70;;;;;;;;;;5060532;28;20488;-68
2023/07/10 03:49:53;;;;;;;50.87;36.67;;;;;;;;;;5066943;28;20492;-66
2023/07/10 03:52:20;;;;;;;46.57;36.10;;;;;;;;;;5063146;28;20476;-67
2023/07/10 03:54:46;;;;;;;58.10;38.53;;;;;;;;;;5071684;28;20551;-67
2023/07/10 03:57:14;;;;;;;49.87;38.90;;;;;;;;;;5056121;28;20456;-67
2023/07/10 03:59:40;;;;;;;50.67;38.13;;;;;;;;;;5064397;28;20520;-68
2023/07/10 04:02:06;;;;;;;51.40;37.60;;;;;;;;;;5066953;28;20572;-68
2023/07/10 04:04:33;;;;;;;47.63;37.53;;;;;;;;;;5059217;28;20488;-68
2023/07/10 04:06:59;;;;;;;51.43;37.40;;;;;;;;;;5057658;28;21351;-68
2023/07/10 04:09:26;;;;;;;44.00;35.73;;;;;;;;;;5062365;28;20495;-68
2023/07/10 04:11:52;;;;;;;46.83;35.23;;;;;;;;;;5059777;28;20490;-68
2023/07/10 04:14:20;;;;;;;49.33;35.30;;;;;;;;;;5058385;28;20610;-67
2023/07/10 04:16:52;;;;;;;42.80;33.70;;;;;;;;;;5061866;28;20480;-67
2023/07/10 04:19:18;;;;;;;42.57;36.30;;;;;;;;;;5060468;28;20472;-67
2023/07/10 04:21:45;;;;;;;41.80;34.73;;;;;;;;;;5057805;28;20476;-67
2023/07/10 04:24:11;;;;;;;38.00;33.53;;;;;;;;;;5059947;28;20461;-66
2023/07/10 04:26:38;;;;;;;42.27;34.77;;;;;;;;;;5057284;28;20469;-66
2023/07/10 04:29:05;;;;;;;45.17;35.43;;;;;;;;;;5057132;28;20484;-66
2023/07/10 04:31:33;;;;;;;41.10;34.13;;;;;;;;;;5057602;28;20505;-66
2023/07/10 04:34:00;;;;;;;45.27;35.17;;;;;;;;;;5058392;28;20484;-67
2023/07/10 04:36:27;;;;;;;39.17;32.77;;;;;;;;;;5056976;28;20485;-66
2023/07/10 04:38:53;;;;;;;39.17;34.10;;;;;;;;;;5056097;28;20553;-66
2023/07/10 04:41:22;;;;;;;41.80;32.67;;;;;;;;;;5054530;28;20484;-67
2023/07/10 04:43:48;;;;;;;37.90;32.87;;;;;;;;;;5057645;28;20499;-67
2023/07/10 04:46:15;;;;;;;40.90;33.53;;;;;;;;;;5058644;28;20457;-67
2023/07/10 04:48:43;;;;;;;41.93;34.50;;;;;;;;;;5055765;28;20472;-67
2023/07/10 04:51:10;;;;;;;39.10;32.70;;;;;;;;;;5060968;28;20463;-67
2023/07/10 04:53:36;;;;;;;41.10;33.70;;;;;;;;;;5061335;28;20489;-67
2023/07/10 04:56:04;;;;;;;40.73;34.33;;;;;;;;;;5058306;28;20477;-67
2023/07/10 04:58:30;;;;;;;36.10;31.50;;;;;;;;;;5057293;28;20456;-66
2023/07/10 05:00:58;;;;;;;44.00;34.83;;;;;;;;;;5061325;28;20480;-66
2023/07/10 05:03:25;;;;;;;40.77;35.50;;;;;;;;;;5061061;28;20481;-66
2023/07/10 05:05:54;;;;;;;40.50;34.37;;;;;;;;;;5057270;28;20559;-67
2023/07/10 05:08:21;;;;;;;40.93;32.47;;;;;;;;;;5057987;28;20485;-66
2023/07/10 05:10:50;;;;;;;34.43;30.20;;;;;;;;;;5054447;28;20531;-66
2023/07/10 05:13:16;;;;;;;38.70;31.37;;;;;;;;;;5057926;28;20459;-66
2023/07/10 05:15:43;;;;;;;38.30;30.00;;;;;;;;;;5057675;28;20555;-67
2023/07/10 05:18:09;;;;;;;37.17;29.53;;;;;;;;;;5058348;28;20884;-65
2023/07/10 05:20:35;;;;;;;36.80;29.47;;;;;;;;;;5056311;28;20516;-65
2023/07/10 05:23:05;;;;;;;34.20;29.47;;;;;;;;;;5056921;28;20556;-65
2023/07/10 05:25:31;;;;;;;34.37;29.73;;;;;;;;;;5046736;28;21041;-65
2023/07/10 05:27:58;;;;;;;39.90;31.17;;;;;;;;;;5052122;28;20566;-65
2023/07/10 05:30:24;;;;;;;32.60;28.60;;;;;;;;;;5056774;28;20455;-65
2023/07/10 05:32:51;;;;;;;31.97;28.27;;;;;;;;;;5054056;28;20776;-65
2023/07/10 05:35:18;;;;;;;34.00;28.00;;;;;;;;;;5055188;28;20456;-65
2023/07/10 05:37:44;;;;;;;30.37;26.60;;;;;;;;;;5057039;28;20517;-65
2023/07/10 05:40:12;;;;;;;34.17;27.37;;;;;;;;;;5063941;28;20452;-65
2023/07/10 05:42:39;;;;;;;32.40;28.93;;;;;;;;;;5055404;28;20481;-65
2023/07/10 05:45:06;;;;;;;31.80;28.50;;;;;;;;;;5056516;28;20532;-66
2023/07/10 05:47:32;;;;;;;32.23;27.77;;;;;;;;;;5057220;28;20568;-65
2023/07/10 05:49:58;;;;;;;32.83;28.37;;;;;;;;;;5056128;28;20456;-65
2023/07/10 05:52:25;;;;;;;31.60;28.33;;;;;;;;;;5056689;28;20516;-65
2023/07/10 05:54:52;;;;;;;27.80;24.80;;;;;;;;;;5056544;28;20548;-65
2023/07/10 05:57:20;;;;;;;32.10;24.93;;;;;;;;;;5055720;28;20492;-65
2023/07/10 05:59:46;;;;;;;27.43;24.47;;;;;;;;;;5059364;28;20480;-65
2023/07/10 06:02:13;;;;;;;27.13;24.20;;;;;;;;;;5056457;28;20480;-65
2023/07/10 06:04:39;;;;;;;27.40;22.80;;;;;;;;;;5053744;28;20499;-65
2023/07/10 06:07:06;;;;;;;31.23;23.10;;;;;;;;;;5068988;28;20519;-65
2023/07/10 06:09:33;;;;;;;27.50;24.57;;;;;;;;;;5080597;28;20491;-66
2023/07/10 06:11:59;;;;;;;30.20;24.20;;;;;;;;;;5070391;28;20530;-65
2023/07/10 06:14:27;;;;;;;27.33;24.33;;;;;;;;;;5080695;28;20456;-67
2023/07/10 06:16:53;;;;;;;27.93;24.90;;;;;;;;;;5079879;28;20487;-66
2023/07/10 06:19:20;;;;;;;30.37;25.90;;;;;;;;;;5080372;28;20503;-66
2023/07/10 06:21:47;;;;;;;27.40;24.43;;;;;;;;;;5080666;28;20944;-65
2023/07/10 06:24:13;;;;;;;29.63;25.60;;;;;;;;;;5080660;28;20558;-65
2023/07/10 06:26:40;;;;;;;27.97;24.87;;;;;;;;;;5078653;28;20487;-65
2023/07/10 06:29:06;;;;;;;27.07;24.10;;;;;;;;;;5079320;28;20494;-65
2023/07/10 06:31:34;;;;;;;26.50;23.80;;;;;;;;;;5080159;28;20444;-65
2023/07/10 06:34:00;;;;;;;26.87;22.23;;;;;;;;;;5079114;28;20519;-66
2023/07/10 06:36:27;;;;;;;22.53;20.20;;;;;;;;;;5077507;28;20530;-65
2023/07/10 06:38:53;;;;;;;22.70;20.40;;;;;;;;;;5079207;28;20530;-66
2023/07/10 06:41:20;;;;;;;21.33;19.20;;;;;;;;;;5077964;28;20528;-65
2023/07/10 06:43:46;;;;;;;23.63;19.40;;;;;;;;;;5078505;28;20570;-65
2023/07/10 06:46:12;;;;;;;20.10;18.00;;;;;;;;;;5075320;28;20527;-65
2023/07/10 06:48:40;;;;;;;21.40;18.23;;;;;;;;;;5080511;28;20475;-65
2023/07/10 06:51:07;;;;;;;22.50;18.53;;;;;;;;;;5080630;28;20953;-65
2023/07/10 06:53:33;;;;;;;18.80;16.67;;;;;;;;;;5080279;28;20512;-65
2023/07/10 06:56:01;;;;;;;20.40;16.90;;;;;;;;;;5079716;28;20464;-66
2023/07/10 06:58:27;;;;;;;18.70;16.37;;;;;;;;;;5081161;28;20448;-65
2023/07/10 07:00:54;;;;;;;17.20;15.40;;;;;;;;;;5077042;28;21054;-65
2023/07/10 07:03:21;;;;;;;18.50;15.20;;;;;;;;;;5077587;28;20491;-65
2023/07/10 07:05:49;;;;;;;19.50;15.67;;;;;;;;;;5075788;28;20577;-65
2023/07/10 07:08:17;;;;;;;17.43;15.63;;;;;;;;;;5080783;28;20479;-65
2023/07/10 07:10:44;;;;;;;19.20;17.17;;;;;;;;;;5076877;28;20455;-65
2023/07/10 07:13:11;;;;;;;17.53;15.67;;;;;;;;;;5079767;28;20796;-65
2023/07/10 07:15:37;;;;;;;19.30;16.70;;;;;;;;;;5078850;28;20495;-65
2023/07/10 07:18:04;;;;;;;19.87;16.63;;;;;;;;;;5067673;28;20484;-65
2023/07/10 07:20:30;;;;;;;18.20;16.27;;;;;;;;;;5066504;28;20900;-65
2023/07/10 07:22:58;;;;;;;17.03;15.20;;;;;;;;;;5073450;28;20479;-65
2023/07/10 07:25:24;;;;;;;20.23;15.90;;;;;;;;;;5072690;28;20476;-65
2023/07/10 07:27:51;;;;;;;20.30;15.53;;;;;;;;;;5071886;28;20547;-66
2023/07/10 07:30:17;;;;;;;16.70;14.10;;;;;;;;;;5086647;28;20440;-65
2023/07/10 07:32:44;;;;;;;15.53;13.87;;;;;;;;;;5068558;28;20437;-65
2023/07/10 07:35:11;;;;;;;15.77;13.73;;;;;;;;;;5068329;28;20487;-65
2023/07/10 07:37:37;;;;;;;16.10;13.27;;;;;;;;;;5070997;28;20710;-65
2023/07/10 07:40:06;;;;;;;15.90;13.40;;;;;;;;;;5078134;28;20486;-64
2023/07/10 07:42:32;;;;;;;14.80;12.70;;;;;;;;;;5075454;28;20544;-65
2023/07/10 07:44:59;;;;;;;13.73;12.33;;;;;;;;;;5078099;28;20570;-64
2023/07/10 07:47:27;;;;;;;13.90;12.50;;;;;;;;;;5077845;28;20471;-64
2023/07/10 07:49:53;;;;;;;13.83;12.50;;;;;;;;;;5074260;28;21040;-64
2023/07/10 07:52:20;;;;;;;16.17;12.23;;;;;;;;;;5078076;28;20458;-64
2023/07/10 07:54:48;;;;;;;14.80;13.30;;;;;;;;;;5080207;28;20508;-64
2023/07/10 07:57:16;;;;;;;14.03;12.60;;;;;;;;;;5078567;28;20877;-64
2023/07/10 07:59:42;;;;;;;14.20;12.80;;;;;;;;;;5077789;28;20496;-64
2023/07/10 08:02:09;;;;;;;13.43;12.03;;;;;;;;;;5073685;28;20448;-64
2023/07/10 08:04:36;;;;;;;15.30;11.63;;;;;;;;;;5069257;28;20511;-64
2023/07/10 08:07:02;;;;;;;12.73;11.53;;;;;;;;;;5084423;28;20555;-64
2023/07/10 08:09:29;;;;;;;12.60;10.60;;;;;;;;;;5078153;28;20455;-64
2023/07/10 08:11:55;;;;;;;10.90;9.80;;;;;;;;;;5074995;28;20538;-64
2023/07/10 08:14:23;;;;;;;11.53;10.33;;;;;;;;;;5069753;28;20870;-64
2023/07/10 08:16:49;;;;;;;12.40;10.50;;;;;;;;;;5071817;28;20487;-64
2023/07/10 08:19:15;;;;;;;11.13;10.13;;;;;;;;;;5071774;28;20506;-64
2023/07/10 08:21:42;;;;;;;10.77;9.77;;;;;;;;;;5077001;28;20948;-65
2023/07/10 08:24:08;;;;;;;9.23;8.23;;;;;;;;;;5077963;28;20490;-64
2023/07/10 08:26:44;;;;;;;7.80;6.80;;;;;;;;;;5071166;28;20452;-64
2023/07/10 08:29:24;;;;;;;7.53;5.53;;;;;;;;;;5068493;28;20452;-64
2023/07/10 08:31:52;;;;;;;5.80;5.20;;;;;;;;;;5065227;28;20455;-64
2023/07/10 08:34:18;;;;;;;10.70;4.90;;;;;;;;;;5072564;28;20486;-64
2023/07/10 08:36:45;;;;;;;5.70;5.10;;;;;;;;;;5078203;28;20483;-64
2023/07/10 08:39:12;;;;;;;6.57;5.20;;;;;;;;;;5066956;28;20771;-64
2023/07/10 08:41:38;;;;;;;5.10;4.47;;;;;;;;;;5073242;28;20461;-64
2023/07/10 08:44:05;;;;;;;7.20;4.60;;;;;;;;;;5074417;28;20514;-64
2023/07/10 08:46:33;;;;;;;5.20;4.70;;;;;;;;;;5075605;28;20464;-64
2023/07/10 08:49:00;;;;;;;5.53;4.53;;;;;;;;;;5077640;28;20456;-63
2023/07/10 08:51:35;;;;;;;6.03;4.40;;;;;;;;;;5075827;28;20444;-65
2023/07/10 08:54:03;;;;;;;6.03;4.67;;;;;;;;;;5070660;28;20442;-64
2023/07/10 08:56:32;;;;;;;5.20;4.30;;;;;;;;;;5077279;28;20452;-64
2023/07/10 08:59:02;;;;;;;11.63;4.30;;;;;;;;;;5079018;28;20460;-64
2023/07/10 09:01:31;;;;;;;5.87;4.73;;;;;;;;;;5074005;28;20449;-64
2023/07/10 09:03:59;;;;;;;5.67;4.40;;;;;;;;;;5070888;28;20475;-65
2023/07/10 09:06:33;;;;;;;9.07;4.17;;;;;;;;;;5062697;28;20496;-65
2023/07/10 09:08:59;;;;;;;5.20;4.70;;;;;;;;;;5057186;28;20443;-65
2023/07/10 09:11:28;;;;;;;5.10;4.30;;;;;;;;;;5057925;28;20516;-65
2023/07/10 09:13:56;;;;;;;5.10;4.60;;;;;;;;;;5066618;28;20448;-65
2023/07/10 09:16:23;;;;;;;5.80;4.00;;;;;;;;;;5056391;28;20452;-65
2023/07/10 09:18:53;;;;;;;4.73;3.90;;;;;;;;;;5057829;28;20615;-65
2023/07/10 09:21:22;;;;;;;5.20;4.23;;;;;;;;;;5057902;28;20461;-65
2023/07/10 09:23:49;;;;;;;5.20;4.17;;;;;;;;;;5056803;28;20511;-65
2023/07/10 09:26:17;;;;;;;5.20;4.40;;;;;;;;;;5050510;28;20472;-65
2023/07/10 09:28:45;;;;;;;5.20;4.40;;;;;;;;;;5053941;28;20444;-65
2023/07/10 09:31:17;;;;;;;6.83;4.10;;;;;;;;;;5057040;28;20455;-65
2023/07/10 09:33:44;;;;;;;5.57;4.60;;;;;;;;;;5050666;28;20536;-65
2023/07/10 09:36:14;;;;;;;8.30;4.30;;;;;;;;;;5056964;28;20463;-65
2023/07/10 09:38:45;;;;;;;4.73;3.87;;;;;;;;;;5056688;28;20440;-65
2023/07/10 09:41:12;;;;;;;5.27;3.80;;;;;;;;;;5056846;28;20479;-65
2023/07/10 09:43:48;;;;;;;6.03;3.83;;;;;;;;;;5060882;28;20480;-65
2023/07/10 09:46:14;;;;;;;6.20;3.50;;;;;;;;;;5061014;28;20479;-65
2023/07/10 09:48:41;;;;;;;5.20;3.33;;;;;;;;;;5051887;28;20478;-65
2023/07/10 09:51:08;;;;;;;7.00;3.43;;;;;;;;;;5061413;28;20461;-65
2023/07/10 09:53:37;;;;;;;5.30;3.30;;;;;;;;;;5060889;28;20738;-65
2023/07/10 09:56:06;;;;;;;6.03;3.10;;;;;;;;;;5061319;28;21013;-65
2023/07/10 09:58:32;;;;;;;4.67;2.97;;;;;;;;;;5061475;28;20658;-66
2023/07/10 10:01:00;;;;;;;3.03;2.60;;;;;;;;;;5060790;28;20456;-65
2023/07/10 10:03:27;;;;;;;4.20;3.00;;;;;;;;;;5061687;28;20503;-65
2023/07/10 10:05:55;;;;;;;4.17;2.50;;;;;;;;;;5063803;28;20545;-65
2023/07/10 10:08:22;;;;;;;4.13;2.97;;;;;;;;;;5080500;28;20451;-65
2023/07/10 10:11:00;;;;;;;4.23;2.50;;;;;;;;;;5080492;28;20478;-66
2023/07/10 10:13:30;;;;;;;3.73;2.50;;;;;;;;;;5081050;28;20470;-65
2023/07/10 10:16:03;;;;;;;4.20;2.47;;;;;;;;;;5081631;28;20487;-65
2023/07/10 10:18:35;;;;;;;5.80;2.63;;;;;;;;;;5081386;28;20475;-66
2023/07/10 10:21:02;;;;;;;4.37;2.50;;;;;;;;;;5079927;28;20460;-65
2023/07/10 10:23:30;;;;;;;5.10;2.60;;;;;;;;;;5080317;28;21055;-66
2023/07/10 10:26:05;;;;;;;4.37;2.50;;;;;;;;;;5080595;28;20476;-66
2023/07/10 10:28:38;;;;;;;4.77;2.97;;;;;;;;;;5081347;28;20447;-65
2023/07/10 10:31:08;;;;;;;4.73;2.60;;;;;;;;;;5080036;28;20463;-66
2023/07/10 10:33:36;;;;;;;5.03;2.30;;;;;;;;;;5074372;28;20478;-66
2023/07/10 10:36:09;;;;;;;3.13;2.63;;;;;;;;;;5081886;28;20503;-66
2023/07/10 10:38:42;;;;;;;3.40;1.97;;;;;;;;;;5088886;28;20443;-66
2023/07/10 10:41:26;;;;;;;7.13;2.60;;;;;;;;;;5089273;28;20559;-65
2023/07/10 10:43:59;;;;;;;4.70;2.43;;;;;;;;;;5080257;28;20471;-65
2023/07/10 10:46:44;;;;;;;3.30;2.10;;;;;;;;;;5089438;28;20455;-66
2023/07/10 10:49:23;;;;;;;3.03;2.40;;;;;;;;;;5077357;28;20452;-65
2023/07/10 10:51:56;;;;;;;5.37;2.30;;;;;;;;;;5075526;28;20483;-65
2023/07/10 10:54:26;;;;;;;4.50;2.07;;;;;;;;;;5067317;28;20933;-65
2023/07/10 10:56:58;;;;;;;2.70;2.27;;;;;;;;;;5078569;28;20474;-65
2023/07/10 10:59:33;;;;;;;2.80;2.07;;;;;;;;;;5080865;28;20474;-65
2023/07/10 11:02:02;;;;;;;4.97;2.67;;;;;;;;;;5079828;28;20689;-66
2023/07/10 11:04:32;;;;;;;3.57;2.20;;;;;;;;;;5080369;28;20523;-65
2023/07/10 11:07:00;;;;;;;3.90;2.00;;;;;;;;;;5078432;28;20538;-66
2023/07/10 11:09:29;;;;;;;3.33;2.57;;;;;;;;;;5079088;28;20451;-66
2023/07/10 11:11:55;;;;;;;4.27;2.10;;;;;;;;;;5079328;28;20472;-65
2023/07/10 11:14:22;;;;;;;3.17;2.10;;;;;;;;;;5079131;28;20533;-65
2023/07/10 11:16:50;;;;;;;3.87;2.30;;;;;;;;;;5074978;28;20485;-66
2023/07/10 11:19:20;;;;;;;4.30;2.37;;;;;;;;;;5080135;28;20992;-66
2023/07/10 11:21:47;;;;;;;3.33;2.00;;;;;;;;;;5072818;28;20456;-66
2023/07/10 11:24:15;;;;;;;4.87;2.37;;;;;;;;;;5074872;28;20480;-66
2023/07/10 11:26:41;;;;;;;5.90;2.63;;;;;;;;;;5079410;28;20534;-65
2023/07/10 11:29:19;;;;;;;4.23;2.77;;;;;;;;;;5079686;28;20459;-66
2023/07/10 11:31:52;;;;;;;5.30;2.77;;;;;;;;;;5092665;28;20455;-65
2023/07/10 11:34:47;;;;;;;5.37;2.23;;;;;;;;;;5080494;28;20446;-66
2023/07/10 11:37:32;;;;;;;7.80;2.57;;;;;;;;;;5081958;28;20444;-66
2023/07/10 11:39:58;;;;;;;4.27;2.60;;;;;;;;;;5073360;28;20447;-66
2023/07/10 11:42:25;;;;;;;3.10;2.10;;;;;;;;;;5077851;28;20460;-66
2023/07/10 11:44:58;;;;;;;4.50;2.10;;;;;;;;;;5087557;28;20537;-64
2023/07/10 11:47:28;;;;;;;5.23;2.30;;;;;;;;;;5079469;28;20546;-64
2023/07/10 11:50:15;;;;;;;7.60;2.30;;;;;;;;;;5085507;28;20458;-64
2023/07/10 11:52:42;;;;;;;3.20;2.20;;;;;;;;;;5078987;28;20655;-66
2023/07/10 11:55:12;;;;;;;5.20;2.23;;;;;;;;;;5078246;28;20455;-66
2023/07/10 11:57:39;;;;;;;3.30;1.97;;;;;;;;;;5079011;28;21075;-66
2023/07/10 12:00:19;;;;;;;3.40;2.20;;;;;;;;;;5077907;28;20471;-66
2023/07/10 12:02:48;;;;;;;4.40;2.50;;;;;;;;;;5075418;28;20467;-66
2023/07/10 12:05:18;;;;;;;3.03;2.20;;;;;;;;;;5077607;28;20500;-64
2023/07/10 12:07:51;;;;;;;3.67;1.97;;;;;;;;;;5078555;28;20462;-64
2023/07/10 12:10:18;;;;;;;3.43;2.07;;;;;;;;;;5070051;28;20530;-65
2023/07/10 12:12:44;;;;;;;3.70;2.13;;;;;;;;;;5078364;28;20519;-65
2023/07/10 12:15:11;;;;;;;2.93;1.87;;;;;;;;;;5079810;28;20558;-65
2023/07/10 12:17:39;;;;;;;3.60;2.10;;;;;;;;;;5089808;28;20474;-65
2023/07/10 12:20:18;;;;;;;2.67;1.87;;;;;;;;;;5079634;28;20924;-64
2023/07/10 12:22:46;;;;;;;4.43;2.07;;;;;;;;;;5089663;28;20477;-64
2023/07/10 12:25:13;;;;;;;3.80;2.13;;;;;;;;;;5081692;28;20482;-65
2023/07/10 12:27:40;;;;;;;4.97;1.90;;;;;;;;;;5076224;28;20481;-65
2023/07/10 12:30:14;;;;;;;3.83;1.73;;;;;;;;;;5075260;28;20484;-65
2023/07/10 12:32:41;;;;;;;5.00;1.73;;;;;;;;;;5081228;28;20470;-64
2023/07/10 12:35:13;;;;;;;3.20;1.97;;;;;;;;;;5078680;28;20520;-64
2023/07/10 12:37:47;;;;;;;4.03;1.77;;;;;;;;;;5075197;28;20499;-63
2023/07/10 12:40:15;;;;;;;4.83;2.27;;;;;;;;;;5082813;28;20491;-64
2023/07/10 12:42:42;;;;;;;3.20;1.57;;;;;;;;;;5083030;28;21065;-65
2023/07/10 12:45:15;;;;;;;3.90;1.93;;;;;;;;;;5074653;28;20780;-64
2023/07/10 12:47:45;;;;;;;4.40;1.90;;;;;;;;;;5072369;28;20486;-64
2023/07/10 12:50:11;;;;;;;3.27;1.70;;;;;;;;;;5076052;28;20849;-64
2023/07/10 12:52:38;;;;;;;2.80;1.27;;;;;;;;;;5077124;28;20976;-65
2023/07/10 12:55:05;;;;;;;3.07;1.57;;;;;;;;;;5078160;28;20490;-63
2023/07/10 12:57:35;;;;;;;3.40;1.57;;;;;;;;;;5078534;28;20491;-63
2023/07/10 13:00:04;;;;;;;5.83;1.73;;;;;;;;;;5077740;28;20835;-65
2023/07/10 13:02:36;;;;;;;3.20;1.50;;;;;;;;;;5077838;28;20452;-64
2023/07/10 13:05:06;;;;;;;3.70;1.80;;;;;;;;;;5076532;28;20561;-65
2023/07/10 13:07:33;;;;;;;2.93;1.63;;;;;;;;;;5071233;28;20478;-64
2023/07/10 13:10:01;;;;;;;5.00;1.50;;;;;;;;;;5063763;28;20975;-65
2023/07/10 13:12:29;;;;;;;2.33;1.70;;;;;;;;;;5069106;28;20452;-66
2023/07/10 13:14:57;;;;;;;3.50;1.80;;;;;;;;;;5071922;28;20539;-66
2023/07/10 13:17:25;;;;;;;4.00;1.70;;;;;;;;;;5068626;28;20480;-66
2023/07/10 13:19:52;;;;;;;3.93;1.57;;;;;;;;;;5076343;28;20467;-63
2023/07/10 13:22:18;;;;;;;4.30;2.20;;;;;;;;;;5077305;28;20483;-64
2023/07/10 13:24:44;;;;;;;6.07;1.47;;;;;;;;;;5074611;28;20515;-64
2023/07/10 13:27:18;;;;;;;2.40;1.23;;;;;;;;;;5072764;28;20467;-63
2023/07/10 13:29:44;;;;;;;4.60;2.07;;;;;;;;;;5071059;28;20540;-64
2023/07/10 13:32:13;;;;;;;5.00;1.50;;;;;;;;;;5077225;28;20494;-64
2023/07/10 13:34:40;;;;;;;2.23;1.40;;;;;;;;;;5072763;28;20586;-64
2023/07/10 13:37:14;;;;;;;2.20;1.50;;;;;;;;;;5065285;28;20849;-63
2023/07/10 13:39:40;;;;;;;3.03;1.40;;;;;;;;;;5062849;28;20482;-63
2023/07/10 13:42:10;;;;;;;3.20;1.57;;;;;;;;;;5072191;28;21269;-65
2023/07/10 13:44:37;;;;;;;2.57;1.73;;;;;;;;;;5067114;28;20526;-64
2023/07/10 13:47:03;;;;;;;5.40;1.57;;;;;;;;;;5072317;28;20471;-65
2023/07/10 13:49:34;;;;;;;3.97;1.60;;;;;;;;;;5074953;28;20447;-65
2023/07/10 13:52:00;;;;;;;4.13;1.90;;;;;;;;;;5073693;28;20456;-66
2023/07/10 13:54:26;;;;;;;3.70;1.53;;;;;;;;;;5069953;28;20474;-65
2023/07/10 13:56:53;;;;;;;2.77;1.30;;;;;;;;;;5072561;28;20533;-70
2023/07/10 13:59:20;;;;;;;7.17;2.00;;;;;;;;;;5070024;28;20476;-70
2023/07/10 14:01:46;;;;;;;3.70;1.50;;;;;;;;;;5072730;28;20476;-70
2023/07/10 14:04:13;;;;;;;3.97;1.40;;;;;;;;;;5075220;28;20980;-72
2023/07/10 14:06:45;;;;;;;2.63;1.40;;;;;;;;;;5073937;28;20495;-70
2023/07/10 14:09:13;;;;;;;2.87;1.50;;;;;;;;;;5074478;28;20454;-71
2023/07/10 14:11:42;;;;;;;4.10;2.07;;;;;;;;;;5076786;28;20482;-71
2023/07/10 14:14:13;;;;;;;4.80;1.50;;;;;;;;;;5069931;28;20647;-68
2023/07/10 14:16:39;;;;;;;5.70;1.80;;;;;;;;;;5067338;28;20456;-71
2023/07/10 14:19:06;;;;;;;2.67;1.50;;;;;;;;;;5076381;28;20451;-72
2023/07/10 14:21:32;;;;;;;3.90;1.50;;;;;;;;;;5069066;28;20487;-71
2023/07/10 14:24:00;;;;;;;2.27;1.40;;;;;;;;;;5077266;28;20486;-71
2023/07/10 14:26:30;;;;;;;4.90;1.80;;;;;;;;;;5073924;28;20515;-65
2023/07/10 14:28:58;;;;;;;4.27;2.00;;;;;;;;;;5072230;28;20479;-65
2023/07/10 14:31:25;;;;;;;6.60;1.60;;;;;;;;;;5078313;28;20459;-65
2023/07/10 14:33:51;;;;;;;3.67;1.83;;;;;;;;;;5073255;28;20975;-65